Flight Track Log - Related Links

Times and Time Zones

All times are in EDT time to prevent confusion due to time zone crossing. See the N1250V flight status page for this flight to view local times or setup timezone preferences in your user account.

Time Position Orientation Groundspeed Altitude Reporting Facility
EDT Latitude Longitude Course Direction KTS MPH feet Rate Location/Type
Sun 08:18:51 AM 39.0833 -84.4167 360° North 126 145 1,100  Level Cincinnati TRACON
Sun 08:18:57 AM 39.0833 -84.4167 38° Northeast 131 151 1,200 636 Climbing Cincinnati TRACON
Sun 08:19:57 AM 39.0500 -84.4333 201° Southwest 114 131 1,800 700 Climbing Cincinnati TRACON
Sun 08:20:57 AM 39.0500 -84.3833 90° East 164 189 2,600 556 Climbing Cincinnati TRACON
Sun 08:21:45 AM 39.0456 -84.3592 103° East 142 163 2,800 220 Climbing Indianapolis Center
Sun 08:22:46 AM 39.0528 -84.2872 83° East 167 192 3,000 49 Climbing Indianapolis Center
Sun 08:23:47 AM 39.0917 -84.2747 14° North 162 186 2,900 -49 Descending Indianapolis Center
Sun 08:24:48 AM 39.1272 -84.3086 324° Northwest 159 183 2,900 49 Level Indianapolis Center
Sun 08:25:49 AM 39.1603 -84.3439 320° Northwest 158 182 3,000  Climbing Indianapolis Center
Sun 08:26:50 AM 39.1953 -84.3792 322° Northwest 157 181 2,900  Descending Indianapolis Center
Sun 08:27:51 AM 39.2306 -84.4103 326° Northwest 157 181 3,000  Climbing Indianapolis Center
Sun 08:28:52 AM 39.2639 -84.4394 326° Northwest 152 175 2,900 -98 Descending Indianapolis Center
Sun 08:30:00 AM 39.2913 -84.5572 270° West  Level Estimated
Sun 08:37:00 AM 39.4742 -85.3570 275° West  Level Estimated
Sun 08:38:00 AM 39.4285 -85.4605 240° Southwest  Level FlightAware Approximate
Sun 08:39:00 AM 39.3827 -85.5640 240° Southwest  Level FlightAware Approximate
Sun 08:40:00 AM 39.4096 -85.6780 303° West  Level Estimated
Sun 08:41:00 AM 39.4364 -85.7920 319° Northwest  Level Estimated
Sun 08:42:00 AM 39.4586 -85.9078 284° West  Level FlightAware Approximate
Sun 08:43:00 AM 39.5005 -85.9924 311° West  Level FlightAware Approximate
Sun 08:44:00 AM 39.5694 -86.0708 311° West  Level FlightAware Approximate
Sun 08:45:00 AM 39.6359 -86.1526 322° Northwest  Level FlightAware Approximate
Sun 08:46:00 AM 39.7019 -86.2358 314° West  Level FlightAware Approximate
Sun 08:47:00 AM 39.7662 -86.3215 314° West  Level FlightAware Approximate
Sun 08:48:00 AM 39.8080 -86.4225 281° West  Level FlightAware Approximate
Sun 08:49:00 AM 39.8248 -86.5404 281° West  Level FlightAware Approximate
Sun 08:50:00 AM 39.8415 -86.6584 280° West  Level FlightAware Approximate
Sun 08:51:00 AM 39.8581 -86.7764 280° West  Level FlightAware Approximate
Sun 08:52:00 AM 39.8746 -86.8944 280° West  Level FlightAware Approximate
Sun 08:53:00 AM 39.8910 -87.0125 280° West  Level FlightAware Approximate
Sun 08:54:00 AM 39.9072 -87.1307 280° West  Level FlightAware Approximate
Sun 08:55:00 AM 39.9238 -87.2488 281° West  Level FlightAware Approximate
Sun 08:56:00 AM 39.9408 -87.3669 281° West  Level FlightAware Approximate
Sun 08:57:00 AM 39.9578 -87.4849 281° West  Level FlightAware Approximate
Sun 08:58:00 AM 39.9746 -87.6031 281° West  Level FlightAware Approximate
Sun 08:59:00 AM 39.9913 -87.7213 280° West  Level FlightAware Approximate
Sun 09:00:00 AM 40.0052 -87.8400 277° West  Level FlightAware Approximate
Sun 09:01:00 AM 40.0162 -87.9594 277° West  Level FlightAware Approximate
Sun 09:02:00 AM 40.0270 -88.0789 277° West  Level FlightAware Approximate
Sun 09:03:00 AM 40.0398 -88.1979 280° West  Level FlightAware Approximate
Sun 09:04:00 AM 40.0556 -88.3165 280° West  Level FlightAware Approximate
Sun 09:05:00 AM 40.0710 -88.4351 279° West  Level FlightAware Approximate
Sun 09:06:00 AM 40.0854 -88.5540 279° West  Level FlightAware Approximate
Sun 09:07:00 AM 40.0998 -88.6729 279° West  Level FlightAware Approximate
Sun 09:08:00 AM 40.1141 -88.7919 279° West  Level FlightAware Approximate
Sun 09:09:00 AM 40.1282 -88.9109 279° West  Level FlightAware Approximate
Sun 09:10:00 AM 40.1422 -89.0299 279° West  Level FlightAware Approximate
Sun 09:11:00 AM 40.1560 -89.1490 279° West  Level FlightAware Approximate
Sun 09:12:00 AM 40.1698 -89.2682 279° West  Level FlightAware Approximate
Sun 09:13:00 AM 40.1834 -89.3874 279° West  Level FlightAware Approximate
Sun 09:14:00 AM 40.1969 -89.5067 278° West  Level FlightAware Approximate
Sun 09:15:00 AM 40.2103 -89.6260 278° West  Level FlightAware Approximate
Sun 09:16:00 AM 40.2235 -89.7453 278° West  Level FlightAware Approximate
Sun 09:17:00 AM 40.2365 -89.8648 278° West  Level FlightAware Approximate
Sun 09:18:00 AM 40.2493 -89.9842 278° West  Level FlightAware Approximate
Sun 09:19:00 AM 40.2621 -90.1037 278° West  Level FlightAware Approximate
Sun 09:20:00 AM 40.2747 -90.2233 278° West  Level FlightAware Approximate
Sun 09:21:00 AM 40.2872 -90.3429 278° West  Level FlightAware Approximate
Sun 09:22:00 AM 40.2996 -90.4625 278° West  Level FlightAware Approximate
Sun 09:23:00 AM 40.3102 -90.5825 277° West  Level FlightAware Approximate
Sun 09:24:00 AM 40.3207 -90.7025 277° West  Level FlightAware Approximate
Sun 09:25:00 AM 40.3310 -90.8226 276° West  Level FlightAware Approximate
Sun 09:26:00 AM 40.3437 -90.9422 278° West  Level FlightAware Approximate
Sun 09:27:00 AM 40.3569 -91.0618 278° West  Level FlightAware Approximate
Sun 09:28:00 AM 40.3694 -91.1815 276° West  Level FlightAware Approximate
Sun 09:29:00 AM 40.3797 -91.3017 276° West  Level FlightAware Approximate
Sun 09:30:00 AM 40.3899 -91.4219 276° West  Level FlightAware Approximate
Sun 09:31:00 AM 40.3999 -91.5421 276° West  Level FlightAware Approximate
Sun 09:32:00 AM 40.4098 -91.6623 276° West  Level FlightAware Approximate
Sun 09:33:00 AM 40.4196 -91.7826 276° West  Level FlightAware Approximate
Sun 09:34:00 AM 40.4293 -91.9029 276° West  Level FlightAware Approximate
Sun 09:35:00 AM 40.4388 -92.0232 276° West  Level FlightAware Approximate
Sun 09:36:00 AM 40.4482 -92.1436 276° West  Level FlightAware Approximate
Sun 09:37:00 AM 40.4575 -92.2640 276° West  Level FlightAware Approximate
Sun 09:38:00 AM 40.4667 -92.3845 276° West  Level FlightAware Approximate
Sun 09:39:00 AM 40.4757 -92.5050 276° West  Level FlightAware Approximate
Sun 09:40:00 AM 40.4846 -92.6255 276° West  Level FlightAware Approximate
Sun 09:41:00 AM 40.4934 -92.7460 276° West  Level FlightAware Approximate
Sun 09:42:00 AM 40.5021 -92.8666 275° West  Level FlightAware Approximate
Sun 09:43:00 AM 40.5107 -92.9872 275° West  Level FlightAware Approximate
Sun 09:44:00 AM 40.5191 -93.1078 275° West  Level FlightAware Approximate
Sun 09:45:00 AM 40.5274 -93.2285 275° West  Level FlightAware Approximate
Sun 09:46:00 AM 40.5411 -93.3477 288° West  Level FlightAware Approximate
Sun 09:47:00 AM 40.5500 -93.4670 270° West  Level FlightAware Approximate
Sun 09:48:00 AM 40.5690 -93.5846 275° West  Level FlightAware Approximate
Sun 09:49:00 AM 40.5771 -93.7053 275° West  Level FlightAware Approximate
Sun 09:50:00 AM 40.5833 -93.8262 270° West  Level FlightAware Approximate
Sun 09:51:00 AM 40.5833 -93.9475 270° West  Level FlightAware Approximate
Sun 09:52:00 AM 40.6001 -94.0664 282° West  Level FlightAware Approximate
Sun 09:53:00 AM 40.6198 -94.1849 282° West  Level FlightAware Approximate
Sun 09:54:00 AM 40.6423 -94.3024 288° West  Level FlightAware Approximate
Sun 09:55:00 AM 40.6657 -94.4197 284° West  Level FlightAware Approximate
Sun 09:56:00 AM 40.6875 -94.5377 285° West  Level FlightAware Approximate
Sun 09:57:00 AM 40.7071 -94.6563 279° West  Level FlightAware Approximate
Sun 09:58:00 AM 40.7221 -94.7762 279° West  Level FlightAware Approximate
Sun 09:59:00 AM 40.7379 -94.8959 282° West  Level FlightAware Approximate
Sun 10:00:00 AM 40.7562 -95.0150 282° West  Level FlightAware Approximate
Sun 10:01:00 AM 40.7980 -95.1147 323° Northwest  Level FlightAware Approximate
Sun 10:02:00 AM 40.8479 -95.2130 308° West  Level FlightAware Approximate
Sun 10:03:00 AM 40.9052 -95.3083 310° West  Level FlightAware Approximate
Sun 10:04:00 AM 40.9639 -95.4022 310° West  Level FlightAware Approximate
Sun 10:05:00 AM 41.0282 -95.4893 317° Northwest  Level FlightAware Approximate
Sun 10:06:00 AM 41.0887 -95.5810 309° West  Level FlightAware Approximate
Sun 10:07:00 AM 41.1460 -95.6767 309° West  Level FlightAware Approximate
Sun 10:08:00 AM 41.2125 -95.7610 315° West  Level FlightAware Approximate
Sun 10:09:00 AM 41.2714 -95.8548 323° Northwest  Level FlightAware Approximate
Sun 10:10:00 AM 41.3000 -95.8833 323° Northwest  Level FlightAware Approximate
Sun 10:11:00 AM 41.3032 -95.8941 323° Northwest  Level Estimated
Sun 10:12:00 AM 41.3032 -95.8941 323° Northwest  Level Estimated
Sun 10:13:00 AM 41.3032 -95.8941 323° Northwest  Level Estimated
Sun 10:14:00 AM 41.3032 -95.8941 323° Northwest  Level Estimated
Sun 10:15:00 AM 41.3032 -95.8941 323° Northwest  Level Estimated
Sun 10:16:00 AM 41.3032 -95.8941 323° Northwest  Level Estimated
Sun 10:17:00 AM 41.3032 -95.8941 323° Northwest  Level Estimated
Sun 10:18:00 AM 41.3032 -95.8941 323° Northwest  Level Estimated
Sun 10:19:00 AM 41.3032 -95.8941 323° Northwest  Level Estimated
Sun 10:20:00 AM 41.3032 -95.8941 323° Northwest  Level Estimated
Sun 10:21:00 AM 41.3032 -95.8941 323° Northwest  Level Estimated
Sun 10:22:00 AM 41.3032 -95.8941 323° Northwest  Level Estimated
Sun 10:23:00 AM 41.3032 -95.8941 323° Northwest  Level Estimated
Sun 10:24:00 AM 41.3032 -95.8941 323° Northwest  Level Estimated
Sun 10:25:00 AM 41.3032 -95.8941 323° Northwest  Level Estimated
Sun 10:26:00 AM 41.3032 -95.8941 323° Northwest  Level Estimated
Sun 10:27:00 AM 41.3032 -95.8941 323° Northwest  Level Estimated
Sun 10:28:00 AM 41.3032 -95.8941 323° Northwest  Level Estimated
Sun 10:29:00 AM 41.3032 -95.8941 323° Northwest  Level Estimated
Sun 10:30:00 AM 41.3032 -95.8941 323° Northwest  Level Estimated
Sun 10:31:00 AM 41.3032 -95.8941 323° Northwest  Level Estimated
Sun 10:32:00 AM 41.3032 -95.8941 323° Northwest  Level Estimated
Sun 10:33:00 AM 41.3032 -95.8941 323° Northwest  Level Estimated
Sun 10:34:00 AM 41.3032 -95.8941 323° Northwest  Level Estimated
Sun 10:35:00 AM 41.3032 -95.8941 323° Northwest  Level Estimated
Sun 10:36:00 AM 41.3032 -95.8941 323° Northwest  Level Estimated

Login

Don't have an account? Register now (free) for customized features, flight alerts, and more!